createdAt,value
2022-12-26T00:01:42.562Z,0
2022-12-26T00:02:24.691Z,0
2022-12-26T00:03:05.366Z,0
2022-12-26T00:03:45.883Z,0
2022-12-26T00:05:58.873Z,0
2022-12-26T00:06:40.360Z,0
2022-12-26T00:07:20.912Z,0
2022-12-26T00:08:01.424Z,0
2022-12-26T00:10:14.187Z,0
2022-12-26T00:10:54.741Z,0
2022-12-26T00:11:35.263Z,0
2022-12-26T00:12:15.782Z,0
2022-12-26T00:12:56.369Z,0
2022-12-26T00:13:41.270Z,0
2022-12-26T00:14:18.223Z,0
2022-12-26T00:14:58.722Z,0
2022-12-26T00:15:39.249Z,0
2022-12-26T00:21:04.371Z,0
2022-12-26T00:21:44.917Z,0
2022-12-26T00:22:25.439Z,0
2022-12-26T00:23:05.973Z,0
2022-12-26T00:27:01.735Z,0
2022-12-26T00:27:42.260Z,0
2022-12-26T00:28:23.315Z,0
2022-12-26T00:29:03.833Z,0
2022-12-26T00:29:44.386Z,0
2022-12-26T00:31:57.189Z,0
2022-12-26T00:32:37.668Z,0
2022-12-26T00:33:18.191Z,0
2022-12-26T00:33:58.754Z,0
2022-12-26T00:34:39.291Z,0
2022-12-26T00:35:19.834Z,0
2022-12-26T00:36:00.328Z,0
2022-12-26T00:36:40.879Z,0
2022-12-26T00:37:21.406Z,0
2022-12-26T00:38:01.956Z,0
2022-12-26T00:42:03.091Z,0
2022-12-26T00:42:43.557Z,0
2022-12-26T00:43:24.103Z,0
2022-12-26T00:44:04.650Z,0
2022-12-26T00:44:45.986Z,0
2022-12-26T00:45:26.508Z,0
2022-12-26T00:46:07.084Z,0
2022-12-26T00:48:19.771Z,0
2022-12-26T00:49:00.315Z,0
2022-12-26T00:50:11.917Z,0
2022-12-26T00:50:21.467Z,0
2022-12-26T00:51:01.984Z,0
2022-12-26T00:51:42.523Z,0
2022-12-26T00:52:23.059Z,0
2022-12-26T00:53:03.628Z,0
2022-12-26T00:53:44.172Z,0
2022-12-26T00:54:24.721Z,0
2022-12-26T00:59:49.747Z,0
2022-12-26T01:00:30.385Z,0
2022-12-26T01:01:10.973Z,0
2022-12-26T01:01:51.487Z,0
2022-12-26T01:02:32.061Z,0
2022-12-26T01:03:12.495Z,0
2022-12-26T01:03:52.949Z,0
2022-12-26T01:06:06.080Z,0
2022-12-26T01:06:46.591Z,0
2022-12-26T01:07:28.000Z,0
2022-12-26T01:08:20.733Z,0
2022-12-26T01:10:39.118Z,0
2022-12-26T01:11:19.645Z,0
2022-12-26T01:12:00.181Z,0
2022-12-26T01:12:40.704Z,0
2022-12-26T01:13:21.291Z,0
2022-12-26T01:14:01.799Z,0
2022-12-26T01:14:42.378Z,0
2022-12-26T01:15:22.943Z,0
2022-12-26T01:16:03.592Z,0
2022-12-26T01:16:44.123Z,0
2022-12-26T01:22:49.212Z,0
2022-12-26T01:23:29.716Z,0
2022-12-26T01:24:10.274Z,0
2022-12-26T01:24:50.822Z,0
2022-12-26T01:25:31.349Z,0
2022-12-26T01:26:16.023Z,0
2022-12-26T01:28:25.187Z,0
2022-12-26T01:29:05.740Z,0
2022-12-26T01:29:46.356Z,0
2022-12-26T01:30:28.617Z,0
2022-12-26T01:32:43.356Z,0
2022-12-26T01:33:25.790Z,0
2022-12-26T01:34:07.185Z,0
2022-12-26T01:34:47.739Z,0
2022-12-26T01:37:00.539Z,0
2022-12-26T01:37:41.172Z,0
2022-12-26T01:38:21.701Z,0
2022-12-26T01:39:02.209Z,0
2022-12-26T01:39:42.807Z,0
2022-12-26T01:40:23.354Z,0
2022-12-26T01:41:03.858Z,0
2022-12-26T01:44:58.618Z,0
2022-12-26T01:45:39.128Z,0
2022-12-26T01:46:20.581Z,0
2022-12-26T01:47:01.045Z,0
2022-12-26T01:47:41.555Z,0
2022-12-26T01:48:22.084Z,0
2022-12-26T01:49:02.632Z,0
2022-12-26T01:49:43.113Z,0
2022-12-26T01:50:23.628Z,0
2022-12-26T01:56:28.559Z,0
2022-12-26T01:57:09.059Z,0
2022-12-26T01:57:49.599Z,0
2022-12-26T01:58:30.131Z,0
2022-12-26T01:59:10.623Z,0
2022-12-26T01:59:51.134Z,0
2022-12-26T02:00:31.670Z,0
2022-12-26T02:01:12.567Z,0
2022-12-26T02:01:53.177Z,0
2022-12-26T02:02:33.567Z,0
2022-12-26T02:08:38.280Z,0
2022-12-26T02:09:18.820Z,0
2022-12-26T02:09:59.471Z,0
2022-12-26T02:10:39.960Z,0
2022-12-26T02:12:53.761Z,0
2022-12-26T02:13:34.255Z,0
2022-12-26T02:14:14.753Z,0
2022-12-26T02:14:55.289Z,0
2022-12-26T02:15:35.841Z,0
2022-12-26T02:17:34.307Z,0
2022-12-26T02:18:14.861Z,0
2022-12-26T02:18:56.333Z,0
2022-12-26T02:19:36.901Z,0
2022-12-26T02:21:51.458Z,0
2022-12-26T02:22:31.969Z,0
2022-12-26T02:23:12.512Z,0
2022-12-26T02:23:53.037Z,0
2022-12-26T02:24:33.619Z,0
2022-12-26T02:25:14.139Z,0
2022-12-26T02:25:54.709Z,0
2022-12-26T02:26:35.222Z,0
2022-12-26T02:27:15.766Z,0
2022-12-26T02:27:56.335Z,0
2022-12-26T02:34:38.591Z,0
2022-12-26T02:35:19.157Z,0
2022-12-26T02:35:59.690Z,0
2022-12-26T02:36:40.227Z,0
2022-12-26T02:37:20.742Z,0
2022-12-26T02:38:01.263Z,0
2022-12-26T02:38:41.809Z,0
2022-12-26T02:39:43.188Z,0
2022-12-26T02:40:02.906Z,0
2022-12-26T02:40:43.431Z,0
2022-12-26T02:46:08.708Z,0
2022-12-26T02:48:22.473Z,0
2022-12-26T02:49:04.408Z,0
2022-12-26T02:49:45.719Z,0
2022-12-26T02:50:26.309Z,0
2022-12-26T02:53:00.128Z,0
2022-12-26T02:53:40.624Z,0
2022-12-26T02:54:21.140Z,0
2022-12-26T02:55:01.699Z,0
2022-12-26T02:55:42.198Z,0
2022-12-26T02:57:55.440Z,0
2022-12-26T02:58:35.996Z,0
2022-12-26T02:59:16.550Z,0
2022-12-26T02:59:57.524Z,0
2022-12-26T03:00:37.631Z,0
2022-12-26T03:01:18.319Z,0
2022-12-26T03:01:58.818Z,0
2022-12-26T03:02:39.379Z,0
2022-12-26T03:03:19.813Z,0
2022-12-26T03:04:00.312Z,0
2022-12-26T03:09:20.871Z,0
2022-12-26T03:10:01.409Z,0
2022-12-26T03:10:41.934Z,0
2022-12-26T03:11:22.982Z,0
2022-12-26T03:12:03.630Z,0
2022-12-26T03:12:44.163Z,0
2022-12-26T03:13:24.713Z,0
2022-12-26T03:14:05.235Z,0
2022-12-26T03:14:46.272Z,0
2022-12-26T03:20:06.609Z,0
2022-12-26T03:20:47.759Z,0
2022-12-26T03:21:29.240Z,0
2022-12-26T03:22:11.517Z,0
2022-12-26T03:24:26.063Z,0
2022-12-26T03:25:06.713Z,0
2022-12-26T03:25:47.314Z,0
2022-12-26T03:26:28.325Z,0
2022-12-26T03:28:57.627Z,0
2022-12-26T03:29:38.154Z,0
2022-12-26T03:30:18.686Z,0
2022-12-26T03:31:00.087Z,0
2022-12-26T03:33:34.003Z,0
2022-12-26T03:34:14.538Z,0
2022-12-26T03:34:55.751Z,0
2022-12-26T03:35:36.308Z,0
2022-12-26T03:36:16.803Z,0
2022-12-26T03:36:57.325Z,0
2022-12-26T03:37:48.156Z,0
2022-12-26T03:38:18.360Z,0
2022-12-26T03:38:58.856Z,0
2022-12-26T03:45:01.491Z,0
2022-12-26T03:45:42.671Z,0
2022-12-26T03:46:23.268Z,0
2022-12-26T03:47:03.653Z,0
2022-12-26T03:47:45.717Z,0
2022-12-26T03:48:27.122Z,0
2022-12-26T03:53:51.458Z,0
2022-12-26T03:54:31.981Z,0
2022-12-26T03:55:12.515Z,0
2022-12-26T03:55:53.556Z,0
2022-12-26T03:56:34.082Z,0
2022-12-26T03:57:14.582Z,0
2022-12-26T03:57:55.093Z,0
2022-12-26T03:58:35.638Z,0
2022-12-26T03:59:16.193Z,0
2022-12-26T04:04:41.945Z,0
2022-12-26T04:05:23.147Z,0
2022-12-26T04:06:03.687Z,0
2022-12-26T04:06:44.250Z,0
2022-12-26T04:07:24.790Z,0
2022-12-26T04:08:05.313Z,0
2022-12-26T04:08:46.629Z,0
2022-12-26T04:15:18.568Z,0
2022-12-26T04:15:59.998Z,0
2022-12-26T04:16:42.036Z,0
2022-12-26T04:17:22.638Z,0
2022-12-26T04:19:50.943Z,0
2022-12-26T04:20:31.502Z,0
2022-12-26T04:21:12.102Z,0
2022-12-26T04:21:52.654Z,0
2022-12-26T04:22:33.145Z,0
2022-12-26T04:23:13.669Z,0
2022-12-26T04:23:54.265Z,0
2022-12-26T04:24:34.788Z,0
2022-12-26T04:26:48.857Z,0
2022-12-26T04:27:31.163Z,0
2022-12-26T04:28:14.160Z,0
2022-12-26T04:29:00.105Z,0
2022-12-26T04:31:16.003Z,0
2022-12-26T04:31:56.497Z,0
2022-12-26T04:32:37.005Z,0
2022-12-26T04:33:17.557Z,0
2022-12-26T04:33:58.087Z,0
2022-12-26T04:34:38.657Z,0
2022-12-26T04:35:19.149Z,0
2022-12-26T04:35:59.679Z,0
2022-12-26T04:36:40.196Z,0
2022-12-26T04:37:20.709Z,0
2022-12-26T04:42:41.288Z,0
2022-12-26T04:43:47.699Z,0
2022-12-26T04:44:02.349Z,0
2022-12-26T04:44:42.897Z,0
2022-12-26T04:45:23.404Z,0
2022-12-26T04:46:04.022Z,0
2022-12-26T04:46:44.490Z,0
2022-12-26T04:47:24.936Z,0
2022-12-26T04:48:05.453Z,0
2022-12-26T04:48:46.011Z,0
2022-12-26T04:55:31.374Z,0
2022-12-26T04:57:44.454Z,0
2022-12-26T04:58:25.012Z,0
2022-12-26T04:59:05.541Z,0
2022-12-26T04:59:46.044Z,0
2022-12-26T05:00:26.596Z,0
2022-12-26T05:01:07.150Z,0
2022-12-26T05:01:47.694Z,0
2022-12-26T05:02:29.189Z,0
2022-12-26T05:08:30.441Z,0
2022-12-26T05:09:10.935Z,0
2022-12-26T05:09:51.441Z,0
2022-12-26T05:10:31.969Z,0
2022-12-26T05:11:13.228Z,0
2022-12-26T05:11:53.777Z,0
2022-12-26T05:12:34.305Z,0
2022-12-26T05:13:14.856Z,0
2022-12-26T05:13:56.085Z,0
2022-12-26T05:20:32.667Z,0
2022-12-26T05:21:13.187Z,0
2022-12-26T05:21:53.727Z,0
2022-12-26T05:22:34.248Z,0
2022-12-26T05:26:33.841Z,0
2022-12-26T05:27:14.407Z,0
2022-12-26T05:27:54.907Z,0
2022-12-26T05:28:35.471Z,0
2022-12-26T05:30:49.711Z,0
2022-12-26T05:31:35.357Z,0
2022-12-26T05:32:12.198Z,0
2022-12-26T05:32:52.719Z,0
2022-12-26T05:33:33.233Z,0
2022-12-26T05:34:13.756Z,0
2022-12-26T05:36:52.715Z,0
2022-12-26T05:37:33.241Z,0
2022-12-26T05:38:13.781Z,0
2022-12-26T05:38:54.298Z,0
2022-12-26T05:39:34.810Z,0
2022-12-26T05:40:15.373Z,0
2022-12-26T05:40:55.901Z,0
2022-12-26T05:41:37.323Z,0
2022-12-26T05:42:17.839Z,0
2022-12-26T05:47:02.549Z,0
2022-12-26T05:47:47.053Z,0
2022-12-26T05:48:23.545Z,0
2022-12-26T05:49:04.060Z,0
2022-12-26T05:49:44.594Z,0
2022-12-26T05:50:26.424Z,0
2022-12-26T05:51:06.979Z,0
2022-12-26T05:51:47.462Z,0
2022-12-26T05:58:29.222Z,0
2022-12-26T05:59:09.739Z,0
2022-12-26T05:59:50.251Z,0
2022-12-26T06:00:30.772Z,0
2022-12-26T06:01:11.349Z,0
2022-12-26T06:01:52.746Z,0
2022-12-26T06:02:33.263Z,0
2022-12-26T06:03:13.938Z,0
2022-12-26T06:05:52.233Z,0
2022-12-26T06:06:32.734Z,0
2022-12-26T06:07:13.286Z,0
2022-12-26T06:07:53.833Z,0
2022-12-26T06:08:34.379Z,0
2022-12-26T06:09:14.851Z,0
2022-12-26T06:09:55.387Z,0
2022-12-26T06:10:35.934Z,0
2022-12-26T06:12:50.519Z,0
2022-12-26T06:13:32.055Z,0
2022-12-26T06:14:12.624Z,0
2022-12-26T06:14:53.140Z,0
2022-12-26T06:16:51.128Z,0
2022-12-26T06:17:31.592Z,0
2022-12-26T06:18:12.118Z,0
2022-12-26T06:18:52.640Z,0
2022-12-26T06:19:33.207Z,0
2022-12-26T06:20:14.670Z,0
2022-12-26T06:20:55.269Z,0
2022-12-26T06:21:35.807Z,0
2022-12-26T06:27:01.118Z,0
2022-12-26T06:27:41.629Z,0
2022-12-26T06:28:23.104Z,0
2022-12-26T06:29:03.619Z,0
2022-12-26T06:29:44.189Z,0
2022-12-26T06:30:24.667Z,0
2022-12-26T06:31:05.276Z,0
2022-12-26T06:31:45.744Z,0
2022-12-26T06:37:47.521Z,0
2022-12-26T06:38:28.641Z,0
2022-12-26T06:39:09.169Z,0
2022-12-26T06:39:49.658Z,0
2022-12-26T06:40:30.192Z,0
2022-12-26T06:41:10.705Z,0
2022-12-26T06:41:51.241Z,0
2022-12-26T06:47:17.729Z,0
2022-12-26T06:47:58.212Z,0
2022-12-26T06:50:17.443Z,4
2022-12-26T06:50:57.961Z,4
2022-12-26T06:51:38.473Z,4
2022-12-26T06:52:18.994Z,4
2022-12-26T06:54:16.733Z,4
2022-12-26T06:54:57.305Z,8
2022-12-26T06:55:37.838Z,4
2022-12-26T06:56:18.440Z,4
2022-12-26T06:56:59.003Z,12
2022-12-26T06:59:12.032Z,12
2022-12-26T06:59:52.565Z,16
2022-12-26T07:00:33.747Z,16
2022-12-26T07:01:14.352Z,16
2022-12-26T07:01:54.858Z,16
2022-12-26T07:02:35.353Z,16
2022-12-26T07:03:15.842Z,16
2022-12-26T07:09:35.183Z,40
2022-12-26T07:10:15.725Z,44
2022-12-26T07:10:56.257Z,44
2022-12-26T07:11:36.816Z,44
2022-12-26T07:12:17.323Z,52
2022-12-26T07:14:15.768Z,64
2022-12-26T07:15:01.322Z,56
2022-12-26T07:15:36.815Z,52
2022-12-26T07:16:17.371Z,48
2022-12-26T07:18:30.957Z,60
2022-12-26T07:19:11.503Z,76
2022-12-26T07:19:52.067Z,96
2022-12-26T07:20:34.653Z,104
2022-12-26T07:23:02.920Z,60
2022-12-26T07:23:43.703Z,60
2022-12-26T07:24:24.105Z,56
2022-12-26T07:25:04.675Z,52
2022-12-26T07:25:45.257Z,56
2022-12-26T07:27:58.361Z,52
2022-12-26T07:28:38.913Z,48
2022-12-26T07:29:19.525Z,52
2022-12-26T07:30:00.051Z,56
2022-12-26T07:33:59.144Z,72
2022-12-26T07:34:39.703Z,76
2022-12-26T07:35:20.191Z,76
2022-12-26T07:36:00.739Z,76
2022-12-26T07:36:41.275Z,76
2022-12-26T07:38:54.377Z,80
2022-12-26T07:39:35.007Z,76
2022-12-26T07:40:15.554Z,72
2022-12-26T07:40:56.066Z,76
2022-12-26T07:41:36.600Z,64
2022-12-26T07:42:17.139Z,56
2022-12-26T07:42:58.173Z,56
2022-12-26T07:46:13.513Z,88
2022-12-26T07:46:53.939Z,108
2022-12-26T07:47:34.503Z,148
2022-12-26T07:48:15.158Z,184
2022-12-26T07:50:44.017Z,412
2022-12-26T07:51:24.523Z,400
2022-12-26T07:52:05.054Z,396
2022-12-26T07:52:45.559Z,368
2022-12-26T07:53:26.092Z,328
2022-12-26T07:55:39.251Z,296
2022-12-26T07:56:19.815Z,308
2022-12-26T07:57:22.272Z,348
2022-12-26T07:57:49.309Z,372
2022-12-26T07:58:21.452Z,448
2022-12-26T08:00:35.415Z,548
2022-12-26T08:01:16.090Z,552
2022-12-26T08:01:57.156Z,536
2022-12-26T08:04:35.798Z,700
2022-12-26T08:05:18.039Z,740
2022-12-26T08:05:58.574Z,780
2022-12-26T08:06:39.079Z,872
2022-12-26T08:07:19.598Z,944
2022-12-26T08:08:00.134Z,972
2022-12-26T08:08:45.515Z,976
2022-12-26T08:11:35.881Z,680
2022-12-26T08:12:16.317Z,676
2022-12-26T08:12:56.850Z,652
2022-12-26T08:13:37.378Z,636
2022-12-26T08:14:17.852Z,616
2022-12-26T08:14:58.409Z,560
2022-12-26T08:15:38.968Z,496
2022-12-26T08:16:19.601Z,432
2022-12-26T08:17:00.131Z,372
2022-12-26T08:17:40.621Z,324
2022-12-26T08:23:45.472Z,340
2022-12-26T08:24:26.064Z,320
2022-12-26T08:25:06.549Z,312
2022-12-26T08:25:47.101Z,312
2022-12-26T08:26:27.630Z,324
2022-12-26T08:27:08.155Z,344
2022-12-26T08:27:48.707Z,360
2022-12-26T08:28:29.228Z,368
2022-12-26T08:29:09.788Z,368
2022-12-26T08:29:50.305Z,348
2022-12-26T08:30:30.854Z,324
2022-12-26T08:35:16.173Z,348
2022-12-26T08:35:56.710Z,356
2022-12-26T08:36:37.279Z,376
2022-12-26T08:37:17.762Z,400
2022-12-26T08:37:58.302Z,436
2022-12-26T08:38:38.829Z,492
2022-12-26T08:39:19.398Z,560
2022-12-26T08:39:59.900Z,632
2022-12-26T08:40:43.814Z,676
2022-12-26T08:46:05.795Z,772
2022-12-26T08:46:46.226Z,852
2022-12-26T08:47:26.766Z,940
2022-12-26T08:48:08.239Z,1000
2022-12-26T08:48:48.791Z,1020
2022-12-26T08:49:29.404Z,1036
2022-12-26T08:50:09.948Z,1052
2022-12-26T08:50:50.483Z,1060
2022-12-26T08:55:35.963Z,1220
2022-12-26T08:56:16.533Z,1236
2022-12-26T08:56:57.101Z,1280
2022-12-26T08:57:37.644Z,1300
2022-12-26T08:58:18.777Z,1252
2022-12-26T08:58:59.338Z,1196
2022-12-26T08:59:39.876Z,1184
2022-12-26T09:00:20.440Z,1160
2022-12-26T09:07:05.813Z,1312
2022-12-26T09:07:46.417Z,1308
2022-12-26T09:08:26.946Z,1276
2022-12-26T09:09:09.043Z,1224
2022-12-26T09:09:50.513Z,1152
2022-12-26T09:15:15.451Z,976
2022-12-26T09:15:56.883Z,944
2022-12-26T09:16:40.077Z,904
2022-12-26T09:17:17.943Z,872
2022-12-26T09:17:58.492Z,848
2022-12-26T09:18:39.002Z,832
2022-12-26T09:19:20.318Z,816
2022-12-26T09:20:00.816Z,800
2022-12-26T09:24:45.625Z,884
2022-12-26T09:25:26.178Z,972
2022-12-26T09:26:07.437Z,1040
2022-12-26T09:26:47.988Z,1088
2022-12-26T09:27:28.515Z,1116
2022-12-26T09:28:09.683Z,1128
2022-12-26T09:28:50.932Z,1140
2022-12-26T09:34:55.910Z,2016
2022-12-26T09:35:36.450Z,2024
2022-12-26T09:36:17.033Z,1984
2022-12-26T09:36:57.583Z,1940
2022-12-26T09:37:38.765Z,1924
2022-12-26T09:38:19.297Z,1892
2022-12-26T09:38:59.855Z,1784
2022-12-26T09:39:40.398Z,1624
2022-12-26T09:46:25.957Z,864
2022-12-26T09:47:06.470Z,804
2022-12-26T09:47:47.935Z,760
2022-12-26T09:48:28.480Z,740
2022-12-26T09:49:09.036Z,736
2022-12-26T09:49:49.553Z,748
2022-12-26T09:50:30.100Z,768
2022-12-26T09:51:10.662Z,820
2022-12-26T09:57:16.144Z,960
2022-12-26T09:57:57.428Z,944
2022-12-26T09:58:37.952Z,948
2022-12-26T09:59:18.491Z,988
2022-12-26T09:59:59.055Z,1048
2022-12-26T10:00:39.592Z,1120
2022-12-26T10:01:20.302Z,1204
2022-12-26T10:02:00.828Z,1324
2022-12-26T10:07:25.848Z,3724
2022-12-26T10:08:06.373Z,3540
2022-12-26T10:08:46.929Z,3328
2022-12-26T10:09:27.522Z,3068
2022-12-26T10:10:08.675Z,2748
2022-12-26T10:10:49.200Z,2452
2022-12-26T10:11:30.280Z,2244
2022-12-26T10:12:10.787Z,2156
2022-12-26T10:18:15.540Z,1552
2022-12-26T10:18:56.090Z,1520
2022-12-26T10:19:36.643Z,1512
2022-12-26T10:20:17.161Z,1508
2022-12-26T10:20:57.695Z,1532
2022-12-26T10:21:38.235Z,1564
2022-12-26T10:22:18.788Z,1608
2022-12-26T10:22:59.297Z,1720
2022-12-26T10:23:39.855Z,1888
2022-12-26T10:24:20.376Z,2088
2022-12-26T10:29:06.421Z,2876
2022-12-26T10:29:47.888Z,2736
2022-12-26T10:30:28.401Z,2592
2022-12-26T10:31:09.091Z,2512
2022-12-26T10:31:49.549Z,2512
2022-12-26T10:32:30.088Z,2576
2022-12-26T10:33:10.642Z,2688
2022-12-26T10:37:15.593Z,2876
2022-12-26T10:37:56.125Z,3024
2022-12-26T10:38:36.662Z,3164
2022-12-26T10:39:17.185Z,3216
2022-12-26T10:39:57.718Z,3176
2022-12-26T10:40:38.265Z,3024
2022-12-26T10:41:19.459Z,2768
2022-12-26T10:41:59.980Z,2616
2022-12-26T10:42:41.491Z,2568
2022-12-26T10:48:05.730Z,3400
2022-12-26T10:48:46.277Z,3452
2022-12-26T10:49:26.862Z,3360
2022-12-26T10:50:07.382Z,3244
2022-12-26T10:50:48.685Z,3200
2022-12-26T10:51:30.025Z,3204
2022-12-26T10:53:43.068Z,3504
2022-12-26T10:54:24.595Z,3684
2022-12-26T10:55:27.670Z,3832
2022-12-26T10:55:45.709Z,3900
2022-12-26T10:56:26.874Z,3952
2022-12-26T10:57:07.413Z,4140
2022-12-26T10:57:47.963Z,4508
2022-12-26T11:03:52.868Z,3920
2022-12-26T11:05:26.968Z,3768
2022-12-26T11:06:07.293Z,3812
2022-12-26T11:06:35.025Z,3932
2022-12-26T11:07:15.576Z,3988
2022-12-26T11:07:56.152Z,4036
2022-12-26T11:08:42.852Z,4080
2022-12-26T11:09:17.246Z,4068
2022-12-26T11:09:57.800Z,4024
2022-12-26T11:16:03.151Z,3304
2022-12-26T11:16:43.696Z,3248
2022-12-26T11:18:57.252Z,3540
2022-12-26T11:19:38.752Z,3568
2022-12-26T11:20:21.152Z,3612
2022-12-26T11:21:03.832Z,3584
2022-12-26T11:23:21.335Z,3424
2022-12-26T11:24:01.886Z,3592
2022-12-26T11:24:42.419Z,3364
2022-12-26T11:25:23.015Z,2692
2022-12-26T11:26:03.537Z,2320
2022-12-26T11:26:44.703Z,1944
2022-12-26T11:27:25.291Z,1768
2022-12-26T11:28:05.796Z,1624
2022-12-26T11:30:19.374Z,1580
2022-12-26T11:31:00.930Z,1608
2022-12-26T11:31:41.522Z,1408
2022-12-26T11:32:21.971Z,1260
2022-12-26T11:33:04.122Z,1124
2022-12-26T11:33:43.068Z,1012
2022-12-26T11:34:23.628Z,920
2022-12-26T11:35:04.187Z,896
2022-12-26T11:41:09.661Z,912
2022-12-26T11:41:50.176Z,844
2022-12-26T11:42:30.801Z,840
2022-12-26T11:43:11.195Z,848
2022-12-26T11:43:51.762Z,896
2022-12-26T11:44:32.294Z,1016
2022-12-26T11:45:12.966Z,1248
2022-12-26T11:45:53.507Z,1896
2022-12-26T11:46:34.088Z,2308
2022-12-26T11:52:00.036Z,1160
2022-12-26T11:52:39.778Z,1144
2022-12-26T11:53:20.288Z,964
2022-12-26T11:54:00.752Z,960
2022-12-26T11:54:41.300Z,964
2022-12-26T11:55:21.838Z,1080
2022-12-26T11:56:02.395Z,1384
2022-12-26T11:56:42.900Z,1628
2022-12-26T11:57:23.461Z,1992
2022-12-26T11:58:03.996Z,2280
2022-12-26T12:04:49.463Z,748
2022-12-26T12:05:30.036Z,800
2022-12-26T12:06:10.617Z,900
2022-12-26T12:06:51.102Z,1024
2022-12-26T12:07:31.628Z,924
2022-12-26T12:08:12.118Z,956
2022-12-26T12:08:52.668Z,1056
2022-12-26T12:09:33.215Z,1188
2022-12-26T12:11:47.429Z,2740
2022-12-26T12:12:27.979Z,3008
2022-12-26T12:13:08.535Z,3136
2022-12-26T12:13:49.029Z,3468
2022-12-26T12:14:29.579Z,3504
2022-12-26T12:15:10.194Z,3584
2022-12-26T12:15:50.635Z,3632
2022-12-26T12:16:31.178Z,3168
2022-12-26T12:17:11.682Z,2476
2022-12-26T12:21:16.610Z,2384
2022-12-26T12:21:57.157Z,2964
2022-12-26T12:22:37.732Z,3532
2022-12-26T12:23:18.286Z,4120
2022-12-26T12:23:58.807Z,4688
2022-12-26T12:24:39.351Z,5064
2022-12-26T12:25:19.859Z,5296
2022-12-26T12:26:00.428Z,5388
2022-12-26T12:26:40.966Z,5308
2022-12-26T12:28:54.078Z,5196
2022-12-26T12:29:34.565Z,5060
2022-12-26T12:30:15.090Z,4696
2022-12-26T12:30:55.612Z,4428
2022-12-26T12:31:36.203Z,4504
2022-12-26T12:33:34.147Z,4796
2022-12-26T12:34:14.667Z,4728
2022-12-26T12:34:55.215Z,4004
2022-12-26T12:35:35.745Z,2868
2022-12-26T12:36:16.287Z,2096
2022-12-26T12:36:56.781Z,1732
2022-12-26T12:37:37.379Z,1680
2022-12-26T12:38:17.867Z,1800
2022-12-26T12:38:58.409Z,2116
2022-12-26T12:41:27.786Z,3904
2022-12-26T12:42:08.374Z,3592
2022-12-26T12:42:49.035Z,3048
2022-12-26T12:43:29.540Z,2660
2022-12-26T12:45:42.664Z,2496
2022-12-26T12:46:23.150Z,1968
2022-12-26T12:47:03.677Z,1484
2022-12-26T12:47:47.119Z,1340
2022-12-26T12:50:00.266Z,1700
2022-12-26T12:50:40.862Z,1824
2022-12-26T12:51:21.416Z,1848
2022-12-26T12:52:02.877Z,1700
2022-12-26T12:52:43.430Z,1724
2022-12-26T12:55:02.221Z,1432
2022-12-26T12:55:43.584Z,1616
2022-12-26T12:56:24.082Z,1900
2022-12-26T12:57:04.635Z,2100
2022-12-26T12:59:19.744Z,3924
2022-12-26T13:00:00.921Z,4376
2022-12-26T13:00:41.464Z,4284
2022-12-26T13:01:22.144Z,4352
2022-12-26T13:03:35.100Z,3780
2022-12-26T13:04:15.679Z,3508
2022-12-26T13:04:56.217Z,3456
2022-12-26T13:05:36.770Z,3872
2022-12-26T13:06:17.303Z,4308
2022-12-26T13:06:57.845Z,4556
2022-12-26T13:07:41.868Z,4512
2022-12-26T13:08:18.951Z,4428
2022-12-26T13:08:59.575Z,4420
2022-12-26T13:09:40.116Z,4400
2022-12-26T13:12:59.389Z,3860
2022-12-26T13:13:40.036Z,3712
2022-12-26T13:14:20.689Z,3540
2022-12-26T13:15:01.790Z,3336
2022-12-26T13:15:42.305Z,3160
2022-12-26T13:18:00.751Z,2908
2022-12-26T13:18:41.291Z,2632
2022-12-26T13:19:21.978Z,2340
2022-12-26T13:20:03.148Z,2020
2022-12-26T13:20:43.139Z,2064
2022-12-26T13:22:57.815Z,2688
2022-12-26T13:23:40.358Z,3132
2022-12-26T13:24:20.962Z,3200
2022-12-26T13:25:03.307Z,2892
2022-12-26T13:27:21.501Z,2216
2022-12-26T13:28:02.105Z,1832
2022-12-26T13:28:42.640Z,1436
2022-12-26T13:29:23.153Z,1208
2022-12-26T13:30:03.686Z,1156
2022-12-26T13:30:44.211Z,1300
2022-12-26T13:31:25.646Z,1300
2022-12-26T13:32:07.211Z,1412
2022-12-26T13:37:31.664Z,1564
2022-12-26T13:38:12.153Z,1328
2022-12-26T13:38:54.410Z,1056
2022-12-26T13:39:33.266Z,920
2022-12-26T13:40:13.811Z,944
2022-12-26T13:40:54.347Z,1020
2022-12-26T13:43:07.426Z,1384
2022-12-26T13:43:47.947Z,1796
2022-12-26T13:44:28.495Z,1888
2022-12-26T13:45:09.053Z,2260
2022-12-26T13:45:49.631Z,2748
2022-12-26T13:46:30.141Z,2840
2022-12-26T13:50:24.242Z,3216
2022-12-26T13:51:04.761Z,3444
2022-12-26T13:51:45.305Z,3612
2022-12-26T13:52:25.856Z,3768
2022-12-26T13:53:06.404Z,3880
2022-12-26T13:55:20.388Z,3472
2022-12-26T13:56:00.906Z,3124
2022-12-26T13:56:45.782Z,2900
2022-12-26T13:57:21.991Z,2788
2022-12-26T13:58:02.488Z,2740
2022-12-26T13:58:43.005Z,2808
2022-12-26T13:59:23.540Z,2812
2022-12-26T14:00:04.093Z,2816
2022-12-26T14:00:44.674Z,2872
2022-12-26T14:06:09.449Z,2124
2022-12-26T14:06:49.954Z,2172
2022-12-26T14:09:04.611Z,1836
2022-12-26T14:09:45.270Z,1716
2022-12-26T14:10:25.829Z,1548
2022-12-26T14:11:06.352Z,1368
2022-12-26T14:11:46.899Z,1196
2022-12-26T14:13:59.961Z,824
2022-12-26T14:14:40.470Z,764
2022-12-26T14:15:21.013Z,580
2022-12-26T14:16:01.626Z,568
2022-12-26T14:16:42.209Z,760
2022-12-26T14:17:22.726Z,780
2022-12-26T14:18:03.348Z,800
2022-12-26T14:20:16.848Z,1072
2022-12-26T14:20:58.045Z,1128
2022-12-26T14:21:38.563Z,1132
2022-12-26T14:22:19.108Z,1164
2022-12-26T14:24:53.487Z,640
2022-12-26T14:25:34.181Z,384
2022-12-26T14:26:14.573Z,276
2022-12-26T14:26:55.135Z,408
2022-12-26T14:27:35.659Z,532
2022-12-26T14:28:16.159Z,624
2022-12-26T14:28:56.734Z,648
2022-12-26T14:29:37.292Z,684
2022-12-26T14:30:17.835Z,664
2022-12-26T14:30:58.414Z,500
2022-12-26T14:37:03.208Z,296
2022-12-26T14:37:43.705Z,380
2022-12-26T14:38:24.239Z,400
2022-12-26T14:39:04.762Z,336
2022-12-26T14:39:45.265Z,260
2022-12-26T14:40:25.812Z,288
2022-12-26T14:41:06.953Z,428
2022-12-26T14:41:47.567Z,480
2022-12-26T14:42:28.081Z,468
2022-12-26T14:47:48.475Z,324
2022-12-26T14:48:28.992Z,316
2022-12-26T14:49:09.554Z,320
2022-12-26T14:49:50.114Z,308
2022-12-26T14:50:30.654Z,324
2022-12-26T14:51:11.208Z,324
2022-12-26T14:53:24.924Z,216
2022-12-26T14:54:05.433Z,228
2022-12-26T14:54:50.712Z,368
2022-12-26T14:55:27.634Z,428
2022-12-26T14:57:40.382Z,288
2022-12-26T14:58:20.911Z,304
2022-12-26T14:59:01.458Z,280
2022-12-26T14:59:41.970Z,248
2022-12-26T15:00:22.524Z,240
2022-12-26T15:01:03.180Z,348
2022-12-26T15:01:43.654Z,428
2022-12-26T15:02:24.218Z,504
2022-12-26T15:03:04.722Z,528
2022-12-26T15:03:45.188Z,484
2022-12-26T15:10:30.438Z,408
2022-12-26T15:11:10.949Z,424
2022-12-26T15:11:51.488Z,448
2022-12-26T15:14:06.043Z,420
2022-12-26T15:14:46.568Z,404
2022-12-26T15:15:27.144Z,392
2022-12-26T15:16:07.677Z,384
2022-12-26T15:16:48.164Z,372
2022-12-26T15:19:00.907Z,352
2022-12-26T15:19:41.419Z,344
2022-12-26T15:20:21.942Z,340
2022-12-26T15:21:02.465Z,336
2022-12-26T15:21:42.987Z,328
2022-12-26T15:22:23.488Z,316
2022-12-26T15:23:04.071Z,308
2022-12-26T15:23:45.234Z,300
2022-12-26T15:24:39.622Z,288
2022-12-26T15:31:11.165Z,192
2022-12-26T15:31:51.635Z,184
2022-12-26T15:32:32.127Z,172
2022-12-26T15:33:12.677Z,156
2022-12-26T15:33:53.197Z,140
2022-12-26T15:34:33.727Z,120
2022-12-26T15:35:14.253Z,116
2022-12-26T15:35:59.533Z,116
2022-12-26T15:36:35.294Z,112
2022-12-26T15:37:15.829Z,108
2022-12-26T15:40:36.445Z,68
2022-12-26T15:41:17.061Z,56
2022-12-26T15:41:57.510Z,48
2022-12-26T15:42:38.015Z,48
2022-12-26T15:43:18.569Z,44
2022-12-26T15:45:31.601Z,20
2022-12-26T15:46:12.157Z,16
2022-12-26T15:46:52.644Z,16
2022-12-26T15:47:33.154Z,12
2022-12-26T15:48:13.695Z,8
2022-12-26T15:48:54.209Z,8
2022-12-26T15:49:34.747Z,8
2022-12-26T15:50:15.289Z,8
2022-12-26T15:50:55.829Z,4
2022-12-26T15:51:36.371Z,0
2022-12-26T15:56:13.619Z,0
2022-12-26T15:56:55.651Z,0
2022-12-26T15:57:38.840Z,4
2022-12-26T15:58:20.079Z,4
2022-12-26T16:00:34.526Z,0
2022-12-26T16:01:18.352Z,0
2022-12-26T16:01:59.762Z,0
2022-12-26T16:02:43.927Z,0
2022-12-26T16:05:12.632Z,0
2022-12-26T16:05:53.151Z,0
2022-12-26T16:06:33.665Z,0
2022-12-26T16:07:14.985Z,0
2022-12-26T16:07:55.526Z,0
2022-12-26T16:08:36.045Z,0
2022-12-26T16:09:16.559Z,0
2022-12-26T16:09:57.097Z,0
2022-12-26T16:10:37.625Z,0
2022-12-26T16:16:02.427Z,0